sensor_id;sensor_type;location;lat;lon;timestamp;temperature;humidity
38428;DHT22;24211;49.980;19.776;2023-02-13T00:00:52;4.60;99.90
38428;DHT22;24211;49.980;19.776;2023-02-13T00:03:22;4.60;99.90
38428;DHT22;24211;49.980;19.776;2023-02-13T00:05:49;4.70;99.90
38428;DHT22;24211;49.980;19.776;2023-02-13T00:08:16;4.60;99.90
38428;DHT22;24211;49.980;19.776;2023-02-13T00:10:43;4.60;99.90
38428;DHT22;24211;49.980;19.776;2023-02-13T00:13:10;4.60;99.90
38428;DHT22;24211;49.980;19.776;2023-02-13T00:15:37;4.60;99.90
38428;DHT22;24211;49.980;19.776;2023-02-13T00:18:05;4.60;99.90
38428;DHT22;24211;49.980;19.776;2023-02-13T00:20:32;4.60;99.90
38428;DHT22;24211;49.980;19.776;2023-02-13T00:22:59;4.60;99.90
38428;DHT22;24211;49.980;19.776;2023-02-13T00:25:27;4.60;99.90
38428;DHT22;24211;49.980;19.776;2023-02-13T00:27:54;4.60;99.90
38428;DHT22;24211;49.980;19.776;2023-02-13T00:30:21;4.60;99.90
38428;DHT22;24211;49.980;19.776;2023-02-13T00:32:50;4.60;99.90
38428;DHT22;24211;49.980;19.776;2023-02-13T00:35:17;4.60;99.90
38428;DHT22;24211;49.980;19.776;2023-02-13T00:37:44;4.50;99.90
38428;DHT22;24211;49.980;19.776;2023-02-13T00:40:12;4.50;99.90
38428;DHT22;24211;49.980;19.776;2023-02-13T00:42:39;4.50;99.90
38428;DHT22;24211;49.980;19.776;2023-02-13T00:45:07;4.50;99.90
38428;DHT22;24211;49.980;19.776;2023-02-13T00:47:34;4.50;99.90
38428;DHT22;24211;49.980;19.776;2023-02-13T00:50:01;4.50;99.90
38428;DHT22;24211;49.980;19.776;2023-02-13T00:52:29;4.50;99.90
38428;DHT22;24211;49.980;19.776;2023-02-13T00:54:56;4.50;99.90
38428;DHT22;24211;49.980;19.776;2023-02-13T00:57:23;4.50;99.90
38428;DHT22;24211;49.980;19.776;2023-02-13T00:59:50;4.50;99.90
38428;DHT22;24211;49.980;19.776;2023-02-13T01:02:18;4.50;99.90
38428;DHT22;24211;49.980;19.776;2023-02-13T01:04:45;4.50;99.90
38428;DHT22;24211;49.980;19.776;2023-02-13T01:07:12;4.50;99.90
38428;DHT22;24211;49.980;19.776;2023-02-13T01:09:43;4.50;99.90
38428;DHT22;24211;49.980;19.776;2023-02-13T01:12:11;4.50;99.90
38428;DHT22;24211;49.980;19.776;2023-02-13T01:14:37;4.50;99.90
38428;DHT22;24211;49.980;19.776;2023-02-13T01:17:05;4.50;99.90
38428;DHT22;24211;49.980;19.776;2023-02-13T01:19:32;4.50;99.90
38428;DHT22;24211;49.980;19.776;2023-02-13T01:21:59;4.50;99.90
38428;DHT22;24211;49.980;19.776;2023-02-13T01:24:26;4.50;99.90
38428;DHT22;24211;49.980;19.776;2023-02-13T01:26:57;4.50;99.90
38428;DHT22;24211;49.980;19.776;2023-02-13T01:29:24;4.50;99.90
38428;DHT22;24211;49.980;19.776;2023-02-13T01:31:52;4.50;99.90
38428;DHT22;24211;49.980;19.776;2023-02-13T01:34:19;4.50;99.90
38428;DHT22;24211;49.980;19.776;2023-02-13T01:36:46;4.50;99.90
38428;DHT22;24211;49.980;19.776;2023-02-13T01:39:13;4.50;99.90
38428;DHT22;24211;49.980;19.776;2023-02-13T01:41:41;4.50;99.90
38428;DHT22;24211;49.980;19.776;2023-02-13T01:47:24;4.50;99.90
38428;DHT22;24211;49.980;19.776;2023-02-13T01:50:03;4.50;99.90
38428;DHT22;24211;49.980;19.776;2023-02-13T01:52:32;4.40;99.90
38428;DHT22;24211;49.980;19.776;2023-02-13T01:55:04;4.40;99.90
38428;DHT22;24211;49.980;19.776;2023-02-13T01:57:33;4.40;99.90
38428;DHT22;24211;49.980;19.776;2023-02-13T02:00:07;4.40;99.90
38428;DHT22;24211;49.980;19.776;2023-02-13T02:02:50;4.40;99.90
38428;DHT22;24211;49.980;19.776;2023-02-13T02:05:26;4.40;99.90
38428;DHT22;24211;49.980;19.776;2023-02-13T02:07:57;4.30;99.90
38428;DHT22;24211;49.980;19.776;2023-02-13T02:10:28;4.30;99.90
38428;DHT22;24211;49.980;19.776;2023-02-13T02:15:41;4.30;99.90
38428;DHT22;24211;49.980;19.776;2023-02-13T02:18:22;4.30;99.90
38428;DHT22;24211;49.980;19.776;2023-02-13T02:26:59;4.30;99.90
38428;DHT22;24211;49.980;19.776;2023-02-13T02:35:29;4.30;99.90
38428;DHT22;24211;49.980;19.776;2023-02-13T02:38:24;4.30;99.90
38428;DHT22;24211;49.980;19.776;2023-02-13T02:41:14;4.20;99.90
38428;DHT22;24211;49.980;19.776;2023-02-13T02:44:17;4.20;99.90
38428;DHT22;24211;49.980;19.776;2023-02-13T02:47:26;4.20;99.90
38428;DHT22;24211;49.980;19.776;2023-02-13T02:53:42;4.30;99.90
38428;DHT22;24211;49.980;19.776;2023-02-13T02:56:30;4.30;99.90
38428;DHT22;24211;49.980;19.776;2023-02-13T02:59:13;4.30;99.90
38428;DHT22;24211;49.980;19.776;2023-02-13T03:02:03;4.30;99.90
38428;DHT22;24211;49.980;19.776;2023-02-13T03:04:53;4.30;99.90
38428;DHT22;24211;49.980;19.776;2023-02-13T03:07:43;4.30;99.90
38428;DHT22;24211;49.980;19.776;2023-02-13T03:10:15;4.30;99.90
38428;DHT22;24211;49.980;19.776;2023-02-13T03:13:13;4.20;99.90
38428;DHT22;24211;49.980;19.776;2023-02-13T03:15:58;4.20;99.90
38428;DHT22;24211;49.980;19.776;2023-02-13T03:18:54;4.20;99.90
38428;DHT22;24211;49.980;19.776;2023-02-13T03:22:05;4.30;99.90
38428;DHT22;24211;49.980;19.776;2023-02-13T03:25:02;4.20;99.90
38428;DHT22;24211;49.980;19.776;2023-02-13T03:31:12;4.20;99.90
38428;DHT22;24211;49.980;19.776;2023-02-13T03:36:42;4.20;99.90
38428;DHT22;24211;49.980;19.776;2023-02-13T03:39:55;4.10;99.90
38428;DHT22;24211;49.980;19.776;2023-02-13T03:42:35;4.10;99.90
38428;DHT22;24211;49.980;19.776;2023-02-13T03:45:12;4.10;99.90
38428;DHT22;24211;49.980;19.776;2023-02-13T03:48:04;4.10;99.90
38428;DHT22;24211;49.980;19.776;2023-02-13T03:51:01;4.10;99.90
38428;DHT22;24211;49.980;19.776;2023-02-13T03:53:32;4.20;99.90
38428;DHT22;24211;49.980;19.776;2023-02-13T03:56:02;4.20;99.90
38428;DHT22;24211;49.980;19.776;2023-02-13T03:58:51;4.10;99.90
38428;DHT22;24211;49.980;19.776;2023-02-13T04:02:09;4.10;99.90
38428;DHT22;24211;49.980;19.776;2023-02-13T04:04:53;4.10;99.90
38428;DHT22;24211;49.980;19.776;2023-02-13T04:07:30;4.10;99.90
38428;DHT22;24211;49.980;19.776;2023-02-13T04:16:07;4.20;99.90
38428;DHT22;24211;49.980;19.776;2023-02-13T04:18:41;4.20;99.90
38428;DHT22;24211;49.980;19.776;2023-02-13T04:21:09;4.30;99.90
38428;DHT22;24211;49.980;19.776;2023-02-13T04:23:37;4.20;99.90
38428;DHT22;24211;49.980;19.776;2023-02-13T04:26:11;4.30;99.90
38428;DHT22;24211;49.980;19.776;2023-02-13T04:28:44;4.20;99.90
38428;DHT22;24211;49.980;19.776;2023-02-13T04:31:11;4.20;99.90
38428;DHT22;24211;49.980;19.776;2023-02-13T04:33:38;4.10;99.90
38428;DHT22;24211;49.980;19.776;2023-02-13T04:36:06;4.10;99.90
38428;DHT22;24211;49.980;19.776;2023-02-13T04:38:33;4.10;99.90
38428;DHT22;24211;49.980;19.776;2023-02-13T04:41:00;4.10;99.90
38428;DHT22;24211;49.980;19.776;2023-02-13T04:43:27;4.10;99.90
38428;DHT22;24211;49.980;19.776;2023-02-13T04:45:55;4.10;99.90
38428;DHT22;24211;49.980;19.776;2023-02-13T04:48:22;4.10;99.90
38428;DHT22;24211;49.980;19.776;2023-02-13T04:50:49;4.10;99.90
38428;DHT22;24211;49.980;19.776;2023-02-13T04:53:16;4.10;99.90
38428;DHT22;24211;49.980;19.776;2023-02-13T04:55:43;4.10;99.90
38428;DHT22;24211;49.980;19.776;2023-02-13T04:58:11;4.10;99.90
38428;DHT22;24211;49.980;19.776;2023-02-13T05:00:38;4.20;99.90
38428;DHT22;24211;49.980;19.776;2023-02-13T05:03:10;4.20;99.90
38428;DHT22;24211;49.980;19.776;2023-02-13T05:05:39;4.20;99.90
38428;DHT22;24211;49.980;19.776;2023-02-13T05:08:07;4.20;99.90
38428;DHT22;24211;49.980;19.776;2023-02-13T05:10:35;4.20;99.90
38428;DHT22;24211;49.980;19.776;2023-02-13T05:13:02;4.20;99.90
38428;DHT22;24211;49.980;19.776;2023-02-13T05:15:29;4.20;99.90
38428;DHT22;24211;49.980;19.776;2023-02-13T05:17:57;4.20;99.90
38428;DHT22;24211;49.980;19.776;2023-02-13T05:20:24;4.20;99.90
38428;DHT22;24211;49.980;19.776;2023-02-13T05:22:53;4.20;99.90
38428;DHT22;24211;49.980;19.776;2023-02-13T05:25:40;4.20;99.90
38428;DHT22;24211;49.980;19.776;2023-02-13T05:28:07;4.20;99.90
38428;DHT22;24211;49.980;19.776;2023-02-13T05:30:54;4.20;99.90
38428;DHT22;24211;49.980;19.776;2023-02-13T05:33:22;4.10;99.90
38428;DHT22;24211;49.980;19.776;2023-02-13T05:35:49;4.20;99.90
38428;DHT22;24211;49.980;19.776;2023-02-13T05:38:16;4.10;99.90
38428;DHT22;24211;49.980;19.776;2023-02-13T05:40:44;4.10;99.90
38428;DHT22;24211;49.980;19.776;2023-02-13T05:43:11;4.10;99.90
38428;DHT22;24211;49.980;19.776;2023-02-13T05:45:38;4.10;99.90
38428;DHT22;24211;49.980;19.776;2023-02-13T05:48:05;4.10;99.90
38428;DHT22;24211;49.980;19.776;2023-02-13T05:50:32;4.10;99.90
38428;DHT22;24211;49.980;19.776;2023-02-13T05:53:00;4.20;99.90
38428;DHT22;24211;49.980;19.776;2023-02-13T05:55:27;4.20;99.90
38428;DHT22;24211;49.980;19.776;2023-02-13T05:57:55;4.20;99.90
38428;DHT22;24211;49.980;19.776;2023-02-13T06:00:24;4.20;99.90
38428;DHT22;24211;49.980;19.776;2023-02-13T06:02:51;4.20;99.90
38428;DHT22;24211;49.980;19.776;2023-02-13T06:05:18;4.20;99.90
38428;DHT22;24211;49.980;19.776;2023-02-13T06:07:45;4.20;99.90
38428;DHT22;24211;49.980;19.776;2023-02-13T06:10:13;4.20;99.90
38428;DHT22;24211;49.980;19.776;2023-02-13T06:12:41;4.20;99.90
38428;DHT22;24211;49.980;19.776;2023-02-13T06:15:09;4.20;99.90
38428;DHT22;24211;49.980;19.776;2023-02-13T06:17:36;4.20;99.90
38428;DHT22;24211;49.980;19.776;2023-02-13T06:20:04;4.30;99.90
38428;DHT22;24211;49.980;19.776;2023-02-13T06:22:32;4.30;99.90
38428;DHT22;24211;49.980;19.776;2023-02-13T06:24:59;4.30;99.90
38428;DHT22;24211;49.980;19.776;2023-02-13T06:27:26;4.30;99.90
38428;DHT22;24211;49.980;19.776;2023-02-13T06:29:54;4.40;99.90
38428;DHT22;24211;49.980;19.776;2023-02-13T06:32:21;4.40;99.90
38428;DHT22;24211;49.980;19.776;2023-02-13T06:34:48;4.40;99.90
38428;DHT22;24211;49.980;19.776;2023-02-13T06:37:15;4.40;99.90
38428;DHT22;24211;49.980;19.776;2023-02-13T06:39:42;4.50;99.90
38428;DHT22;24211;49.980;19.776;2023-02-13T06:42:09;4.50;99.90
38428;DHT22;24211;49.980;19.776;2023-02-13T06:44:36;4.50;99.90
38428;DHT22;24211;49.980;19.776;2023-02-13T06:47:03;4.50;99.90
38428;DHT22;24211;49.980;19.776;2023-02-13T06:49:31;4.50;99.90
38428;DHT22;24211;49.980;19.776;2023-02-13T06:51:58;4.50;99.90
38428;DHT22;24211;49.980;19.776;2023-02-13T06:54:25;4.50;99.90
38428;DHT22;24211;49.980;19.776;2023-02-13T06:57:11;4.50;99.90
38428;DHT22;24211;49.980;19.776;2023-02-13T06:59:39;4.50;99.90
38428;DHT22;24211;49.980;19.776;2023-02-13T07:02:07;4.50;99.90
38428;DHT22;24211;49.980;19.776;2023-02-13T07:04:36;4.50;99.90
38428;DHT22;24211;49.980;19.776;2023-02-13T07:07:03;4.50;99.90
38428;DHT22;24211;49.980;19.776;2023-02-13T07:09:31;4.50;99.90
38428;DHT22;24211;49.980;19.776;2023-02-13T07:12:02;4.60;99.90
38428;DHT22;24211;49.980;19.776;2023-02-13T07:14:30;4.60;99.90
38428;DHT22;24211;49.980;19.776;2023-02-13T07:16:57;4.60;99.90
38428;DHT22;24211;49.980;19.776;2023-02-13T07:19:25;4.60;99.90
38428;DHT22;24211;49.980;19.776;2023-02-13T07:21:52;4.70;99.90
38428;DHT22;24211;49.980;19.776;2023-02-13T07:24:19;4.70;99.90
38428;DHT22;24211;49.980;19.776;2023-02-13T07:26:46;4.70;99.90
38428;DHT22;24211;49.980;19.776;2023-02-13T07:29:13;4.70;99.90
38428;DHT22;24211;49.980;19.776;2023-02-13T07:31:40;4.70;99.90
38428;DHT22;24211;49.980;19.776;2023-02-13T07:34:08;4.80;99.90
38428;DHT22;24211;49.980;19.776;2023-02-13T07:36:35;4.80;99.90
38428;DHT22;24211;49.980;19.776;2023-02-13T07:39:02;4.80;99.90
38428;DHT22;24211;49.980;19.776;2023-02-13T07:41:29;4.80;99.90
38428;DHT22;24211;49.980;19.776;2023-02-13T07:43:56;4.80;99.90
38428;DHT22;24211;49.980;19.776;2023-02-13T07:46:23;4.90;99.90
38428;DHT22;24211;49.980;19.776;2023-02-13T07:48:51;4.90;99.90
38428;DHT22;24211;49.980;19.776;2023-02-13T07:51:19;5.00;99.90
38428;DHT22;24211;49.980;19.776;2023-02-13T07:53:46;5.00;99.90
38428;DHT22;24211;49.980;19.776;2023-02-13T07:56:13;5.00;99.90
38428;DHT22;24211;49.980;19.776;2023-02-13T07:58:41;5.10;99.90
38428;DHT22;24211;49.980;19.776;2023-02-13T08:01:17;5.20;99.90
38428;DHT22;24211;49.980;19.776;2023-02-13T08:03:49;5.20;99.90
38428;DHT22;24211;49.980;19.776;2023-02-13T08:06:18;5.20;99.90
38428;DHT22;24211;49.980;19.776;2023-02-13T08:08:46;5.30;99.90
38428;DHT22;24211;49.980;19.776;2023-02-13T08:11:27;5.30;99.90
38428;DHT22;24211;49.980;19.776;2023-02-13T08:14:18;5.30;99.90
38428;DHT22;24211;49.980;19.776;2023-02-13T08:16:47;5.30;99.90
38428;DHT22;24211;49.980;19.776;2023-02-13T08:19:14;5.40;99.90
38428;DHT22;24211;49.980;19.776;2023-02-13T08:21:42;5.40;99.90
38428;DHT22;24211;49.980;19.776;2023-02-13T08:24:10;5.50;99.90
38428;DHT22;24211;49.980;19.776;2023-02-13T08:26:37;5.60;99.90
38428;DHT22;24211;49.980;19.776;2023-02-13T08:29:05;5.60;99.90
38428;DHT22;24211;49.980;19.776;2023-02-13T08:31:33;5.70;99.90
38428;DHT22;24211;49.980;19.776;2023-02-13T08:34:01;5.70;99.90
38428;DHT22;24211;49.980;19.776;2023-02-13T08:36:29;5.70;99.90
38428;DHT22;24211;49.980;19.776;2023-02-13T08:38:57;5.80;99.90
38428;DHT22;24211;49.980;19.776;2023-02-13T08:41:24;5.80;99.90
38428;DHT22;24211;49.980;19.776;2023-02-13T08:43:52;5.90;99.90
38428;DHT22;24211;49.980;19.776;2023-02-13T08:46:21;5.90;99.90
38428;DHT22;24211;49.980;19.776;2023-02-13T08:48:51;6.00;99.90
38428;DHT22;24211;49.980;19.776;2023-02-13T08:51:18;6.10;99.90
38428;DHT22;24211;49.980;19.776;2023-02-13T08:53:46;6.20;99.90
38428;DHT22;24211;49.980;19.776;2023-02-13T08:56:13;6.30;99.90
38428;DHT22;24211;49.980;19.776;2023-02-13T08:58:40;6.30;99.90
38428;DHT22;24211;49.980;19.776;2023-02-13T09:01:07;6.40;99.90
38428;DHT22;24211;49.980;19.776;2023-02-13T09:03:36;6.40;99.90
38428;DHT22;24211;49.980;19.776;2023-02-13T09:06:03;6.40;99.90
38428;DHT22;24211;49.980;19.776;2023-02-13T09:08:31;6.50;99.90
38428;DHT22;24211;49.980;19.776;2023-02-13T09:11:02;6.60;99.90
38428;DHT22;24211;49.980;19.776;2023-02-13T09:13:33;6.70;99.90
38428;DHT22;24211;49.980;19.776;2023-02-13T09:16:05;6.70;99.90
38428;DHT22;24211;49.980;19.776;2023-02-13T09:18:34;6.70;99.90
38428;DHT22;24211;49.980;19.776;2023-02-13T09:21:06;6.80;99.90
38428;DHT22;24211;49.980;19.776;2023-02-13T09:23:38;6.90;99.90
38428;DHT22;24211;49.980;19.776;2023-02-13T09:26:09;6.90;99.90
38428;DHT22;24211;49.980;19.776;2023-02-13T09:28:39;6.90;99.90
38428;DHT22;24211;49.980;19.776;2023-02-13T09:31:08;7.00;99.90
38428;DHT22;24211;49.980;19.776;2023-02-13T09:33:37;7.10;99.90
38428;DHT22;24211;49.980;19.776;2023-02-13T09:36:09;7.20;99.90
38428;DHT22;24211;49.980;19.776;2023-02-13T09:38:41;7.20;99.90
38428;DHT22;24211;49.980;19.776;2023-02-13T09:41:38;7.30;99.90
38428;DHT22;24211;49.980;19.776;2023-02-13T09:44:37;7.30;99.90
38428;DHT22;24211;49.980;19.776;2023-02-13T09:49:44;7.40;99.90
38428;DHT22;24211;49.980;19.776;2023-02-13T09:52:16;7.50;99.90
38428;DHT22;24211;49.980;19.776;2023-02-13T09:54:43;7.50;99.90
38428;DHT22;24211;49.980;19.776;2023-02-13T09:57:33;7.60;99.90
38428;DHT22;24211;49.980;19.776;2023-02-13T10:14:17;7.70;99.90
38428;DHT22;24211;49.980;19.776;2023-02-13T10:17:13;7.70;99.90
38428;DHT22;24211;49.980;19.776;2023-02-13T10:19:49;7.80;99.90
38428;DHT22;24211;49.980;19.776;2023-02-13T10:22:27;7.80;99.90
38428;DHT22;24211;49.980;19.776;2023-02-13T10:25:26;7.90;99.90
38428;DHT22;24211;49.980;19.776;2023-02-13T10:28:11;7.90;99.90
38428;DHT22;24211;49.980;19.776;2023-02-13T10:30:51;8.00;99.90
38428;DHT22;24211;49.980;19.776;2023-02-13T10:33:26;8.00;99.90
38428;DHT22;24211;49.980;19.776;2023-02-13T10:36:24;8.10;99.90
38428;DHT22;24211;49.980;19.776;2023-02-13T10:39:24;8.20;99.90
38428;DHT22;24211;49.980;19.776;2023-02-13T10:42:30;8.20;99.90
38428;DHT22;24211;49.980;19.776;2023-02-13T10:45:28;8.30;99.90
38428;DHT22;24211;49.980;19.776;2023-02-13T10:57:55;8.50;99.90
38428;DHT22;24211;49.980;19.776;2023-02-13T11:00:45;8.50;99.90
38428;DHT22;24211;49.980;19.776;2023-02-13T11:03:34;8.60;99.90
38428;DHT22;24211;49.980;19.776;2023-02-13T11:06:05;8.60;99.90
38428;DHT22;24211;49.980;19.776;2023-02-13T11:08:39;8.70;99.90
38428;DHT22;24211;49.980;19.776;2023-02-13T11:11:47;8.70;99.90
38428;DHT22;24211;49.980;19.776;2023-02-13T11:14:23;8.70;99.90
38428;DHT22;24211;49.980;19.776;2023-02-13T11:17:05;8.60;99.90
38428;DHT22;24211;49.980;19.776;2023-02-13T11:19:48;8.60;99.90
38428;DHT22;24211;49.980;19.776;2023-02-13T11:22:34;8.60;99.90
38428;DHT22;24211;49.980;19.776;2023-02-13T11:25:16;8.50;99.90
38428;DHT22;24211;49.980;19.776;2023-02-13T11:27:48;8.50;99.90
38428;DHT22;24211;49.980;19.776;2023-02-13T11:30:33;8.60;99.90
38428;DHT22;24211;49.980;19.776;2023-02-13T11:35:45;8.60;99.90
38428;DHT22;24211;49.980;19.776;2023-02-13T11:40:52;8.60;99.90
38428;DHT22;24211;49.980;19.776;2023-02-13T11:46:23;8.60;99.90
38428;DHT22;24211;49.980;19.776;2023-02-13T11:49:04;8.70;99.90
38428;DHT22;24211;49.980;19.776;2023-02-13T11:51:39;8.60;99.90
38428;DHT22;24211;49.980;19.776;2023-02-13T11:57:08;8.50;99.90
38428;DHT22;24211;49.980;19.776;2023-02-13T11:59:49;8.50;99.90
38428;DHT22;24211;49.980;19.776;2023-02-13T12:02:24;8.50;99.90
38428;DHT22;24211;49.980;19.776;2023-02-13T12:07:47;8.30;99.90
38428;DHT22;24211;49.980;19.776;2023-02-13T12:10:28;8.20;99.90
38428;DHT22;24211;49.980;19.776;2023-02-13T12:12:59;8.10;99.90
38428;DHT22;24211;49.980;19.776;2023-02-13T12:15:34;8.00;99.90
38428;DHT22;24211;49.980;19.776;2023-02-13T12:18:19;8.10;99.90
38428;DHT22;24211;49.980;19.776;2023-02-13T12:21:08;8.10;99.90
38428;DHT22;24211;49.980;19.776;2023-02-13T12:26:57;8.00;99.90
38428;DHT22;24211;49.980;19.776;2023-02-13T12:29:58;8.00;99.90
38428;DHT22;24211;49.980;19.776;2023-02-13T12:38:48;8.10;99.90
38428;DHT22;24211;49.980;19.776;2023-02-13T12:44:28;8.30;99.90
38428;DHT22;24211;49.980;19.776;2023-02-13T12:47:22;8.40;99.90
38428;DHT22;24211;49.980;19.776;2023-02-13T12:50:15;8.60;99.90
38428;DHT22;24211;49.980;19.776;2023-02-13T12:56:21;8.70;99.90
38428;DHT22;24211;49.980;19.776;2023-02-13T12:59:04;8.70;99.90
38428;DHT22;24211;49.980;19.776;2023-02-13T13:01:53;8.80;99.90
38428;DHT22;24211;49.980;19.776;2023-02-13T13:05:03;8.90;99.90
38428;DHT22;24211;49.980;19.776;2023-02-13T13:19:49;8.90;99.90
38428;DHT22;24211;49.980;19.776;2023-02-13T13:23:08;8.90;99.90
38428;DHT22;24211;49.980;19.776;2023-02-13T13:28:40;8.70;99.90
38428;DHT22;24211;49.980;19.776;2023-02-13T13:31:11;8.60;99.90
38428;DHT22;24211;49.980;19.776;2023-02-13T13:33:43;8.50;99.90
38428;DHT22;24211;49.980;19.776;2023-02-13T13:44:55;8.30;99.90
38428;DHT22;24211;49.980;19.776;2023-02-13T13:50:35;8.20;99.90
38428;DHT22;24211;49.980;19.776;2023-02-13T13:53:20;8.20;99.90
38428;DHT22;24211;49.980;19.776;2023-02-13T13:58:45;8.20;99.90
38428;DHT22;24211;49.980;19.776;2023-02-13T14:03:48;8.20;99.90
38428;DHT22;24211;49.980;19.776;2023-02-13T14:06:26;8.20;99.90
38428;DHT22;24211;49.980;19.776;2023-02-13T14:09:47;8.20;99.90
38428;DHT22;24211;49.980;19.776;2023-02-13T14:14:52;8.10;99.90
38428;DHT22;24211;49.980;19.776;2023-02-13T14:20:42;8.10;99.90
38428;DHT22;24211;49.980;19.776;2023-02-13T14:31:38;8.10;99.90
38428;DHT22;24211;49.980;19.776;2023-02-13T14:34:18;8.00;99.90
38428;DHT22;24211;49.980;19.776;2023-02-13T14:39:36;8.00;99.90
38428;DHT22;24211;49.980;19.776;2023-02-13T14:42:26;8.00;99.90
38428;DHT22;24211;49.980;19.776;2023-02-13T14:44:57;7.90;99.90
38428;DHT22;24211;49.980;19.776;2023-02-13T14:47:53;7.80;99.90
38428;DHT22;24211;49.980;19.776;2023-02-13T14:50:27;7.80;99.90
38428;DHT22;24211;49.980;19.776;2023-02-13T14:52:59;7.70;99.90
38428;DHT22;24211;49.980;19.776;2023-02-13T14:55:37;7.70;99.90
38428;DHT22;24211;49.980;19.776;2023-02-13T14:58:46;7.80;99.90
38428;DHT22;24211;49.980;19.776;2023-02-13T15:01:34;7.70;99.90
38428;DHT22;24211;49.980;19.776;2023-02-13T15:04:29;7.60;99.90
38428;DHT22;24211;49.980;19.776;2023-02-13T15:07:11;7.60;99.90
38428;DHT22;24211;49.980;19.776;2023-02-13T15:09:53;7.60;99.90
38428;DHT22;24211;49.980;19.776;2023-02-13T15:12:33;7.60;99.90
38428;DHT22;24211;49.980;19.776;2023-02-13T15:15:22;7.60;99.90
38428;DHT22;24211;49.980;19.776;2023-02-13T15:18:07;7.60;99.90
38428;DHT22;24211;49.980;19.776;2023-02-13T15:20:40;7.50;99.90
38428;DHT22;24211;49.980;19.776;2023-02-13T15:23:20;7.50;99.90
38428;DHT22;24211;49.980;19.776;2023-02-13T15:25:56;7.50;99.90
38428;DHT22;24211;49.980;19.776;2023-02-13T15:29:00;7.50;99.90
38428;DHT22;24211;49.980;19.776;2023-02-13T15:31:31;7.50;99.90
38428;DHT22;24211;49.980;19.776;2023-02-13T15:34:01;7.40;99.90
38428;DHT22;24211;49.980;19.776;2023-02-13T15:36:39;7.30;99.90
38428;DHT22;24211;49.980;19.776;2023-02-13T15:39:15;7.30;99.90
38428;DHT22;24211;49.980;19.776;2023-02-13T15:41:47;7.20;99.90
38428;DHT22;24211;49.980;19.776;2023-02-13T15:44:18;7.10;99.90
38428;DHT22;24211;49.980;19.776;2023-02-13T15:46:49;7.10;99.90
38428;DHT22;24211;49.980;19.776;2023-02-13T15:49:20;7.10;99.90
38428;DHT22;24211;49.980;19.776;2023-02-13T15:52:01;7.10;99.90
38428;DHT22;24211;49.980;19.776;2023-02-13T15:54:32;7.00;99.90
38428;DHT22;24211;49.980;19.776;2023-02-13T15:57:04;7.00;99.90
38428;DHT22;24211;49.980;19.776;2023-02-13T15:59:37;6.90;99.90
38428;DHT22;24211;49.980;19.776;2023-02-13T16:05:13;6.80;99.90
38428;DHT22;24211;49.980;19.776;2023-02-13T16:07:53;6.80;99.90
38428;DHT22;24211;49.980;19.776;2023-02-13T16:13:02;6.80;99.90
38428;DHT22;24211;49.980;19.776;2023-02-13T16:15:34;6.80;99.90
38428;DHT22;24211;49.980;19.776;2023-02-13T16:18:03;6.80;99.90
38428;DHT22;24211;49.980;19.776;2023-02-13T16:20:33;6.80;99.90
38428;DHT22;24211;49.980;19.776;2023-02-13T16:23:15;6.80;99.90
38428;DHT22;24211;49.980;19.776;2023-02-13T16:25:46;6.80;99.90
38428;DHT22;24211;49.980;19.776;2023-02-13T16:28:18;6.70;99.90
38428;DHT22;24211;49.980;19.776;2023-02-13T16:31:13;6.70;99.90
38428;DHT22;24211;49.980;19.776;2023-02-13T16:33:43;6.80;99.90
38428;DHT22;24211;49.980;19.776;2023-02-13T16:38:45;6.80;99.90
38428;DHT22;24211;49.980;19.776;2023-02-13T16:44:01;6.80;99.90
38428;DHT22;24211;49.980;19.776;2023-02-13T16:46:47;6.90;99.90
38428;DHT22;24211;49.980;19.776;2023-02-13T16:49:20;6.80;99.90
38428;DHT22;24211;49.980;19.776;2023-02-13T16:52:16;6.90;99.90
38428;DHT22;24211;49.980;19.776;2023-02-13T16:54:53;6.80;99.90
38428;DHT22;24211;49.980;19.776;2023-02-13T16:57:28;6.80;99.90
38428;DHT22;24211;49.980;19.776;2023-02-13T17:00:18;6.80;99.90
38428;DHT22;24211;49.980;19.776;2023-02-13T17:02:51;6.80;99.90
38428;DHT22;24211;49.980;19.776;2023-02-13T17:05:21;6.70;99.90
38428;DHT22;24211;49.980;19.776;2023-02-13T17:07:52;6.70;99.90
38428;DHT22;24211;49.980;19.776;2023-02-13T17:10:28;6.70;99.90
38428;DHT22;24211;49.980;19.776;2023-02-13T17:12:59;6.70;99.90
38428;DHT22;24211;49.980;19.776;2023-02-13T17:15:30;6.60;99.90
38428;DHT22;24211;49.980;19.776;2023-02-13T17:17:58;6.60;99.90
38428;DHT22;24211;49.980;19.776;2023-02-13T17:20:29;6.60;99.90
38428;DHT22;24211;49.980;19.776;2023-02-13T17:23:02;6.50;99.90
38428;DHT22;24211;49.980;19.776;2023-02-13T17:25:34;6.40;99.90
38428;DHT22;24211;49.980;19.776;2023-02-13T17:28:13;6.40;99.90
38428;DHT22;24211;49.980;19.776;2023-02-13T17:30:43;6.40;99.90
38428;DHT22;24211;49.980;19.776;2023-02-13T17:33:15;6.30;99.90
38428;DHT22;24211;49.980;19.776;2023-02-13T17:35:46;6.30;99.90
38428;DHT22;24211;49.980;19.776;2023-02-13T17:38:14;6.30;99.90
38428;DHT22;24211;49.980;19.776;2023-02-13T17:40:42;6.20;99.90
38428;DHT22;24211;49.980;19.776;2023-02-13T17:43:12;6.20;99.90
38428;DHT22;24211;49.980;19.776;2023-02-13T17:45:41;6.20;99.90
38428;DHT22;24211;49.980;19.776;2023-02-13T17:48:09;6.20;99.90
38428;DHT22;24211;49.980;19.776;2023-02-13T17:50:37;6.20;99.90
38428;DHT22;24211;49.980;19.776;2023-02-13T17:53:07;6.20;99.90
38428;DHT22;24211;49.980;19.776;2023-02-13T17:55:45;6.20;99.90
38428;DHT22;24211;49.980;19.776;2023-02-13T17:58:12;6.20;99.90
38428;DHT22;24211;49.980;19.776;2023-02-13T18:00:39;6.20;99.90
38428;DHT22;24211;49.980;19.776;2023-02-13T18:03:06;6.20;99.90
38428;DHT22;24211;49.980;19.776;2023-02-13T18:05:34;6.20;99.90
38428;DHT22;24211;49.980;19.776;2023-02-13T18:08:01;6.20;99.90
38428;DHT22;24211;49.980;19.776;2023-02-13T18:10:30;6.20;99.90
38428;DHT22;24211;49.980;19.776;2023-02-13T18:12:59;6.10;99.90
38428;DHT22;24211;49.980;19.776;2023-02-13T18:15:37;6.20;99.90
38428;DHT22;24211;49.980;19.776;2023-02-13T18:18:07;6.20;99.90
38428;DHT22;24211;49.980;19.776;2023-02-13T18:20:34;6.20;99.90
38428;DHT22;24211;49.980;19.776;2023-02-13T18:23:01;6.10;99.90
38428;DHT22;24211;49.980;19.776;2023-02-13T18:25:29;6.20;99.90
38428;DHT22;24211;49.980;19.776;2023-02-13T18:27:56;6.10;99.90
38428;DHT22;24211;49.980;19.776;2023-02-13T18:30:23;6.20;99.90
38428;DHT22;24211;49.980;19.776;2023-02-13T18:32:55;6.30;99.90
38428;DHT22;24211;49.980;19.776;2023-02-13T18:35:25;6.20;99.90
38428;DHT22;24211;49.980;19.776;2023-02-13T18:37:52;6.20;99.90
38428;DHT22;24211;49.980;19.776;2023-02-13T18:40:20;6.20;99.90
38428;DHT22;24211;49.980;19.776;2023-02-13T18:42:48;6.10;99.90
38428;DHT22;24211;49.980;19.776;2023-02-13T18:45:17;6.10;99.90